createdAt,value
2018-07-27T00:00:13.859Z,73.6
2018-07-27T00:01:13.590Z,75.24
2018-07-27T00:02:13.586Z,75.24
2018-07-27T00:03:13.844Z,76.02
2018-07-27T00:04:13.836Z,76.02
2018-07-27T00:05:13.570Z,76.02
2018-07-27T00:06:13.824Z,75.24
2018-07-27T00:07:13.822Z,74.28
2018-07-27T00:08:13.550Z,76.02
2018-07-27T00:09:13.542Z,75.92
2018-07-27T00:10:13.801Z,76.41
2018-07-27T00:11:13.528Z,75.92
2018-07-27T00:12:13.518Z,75.83
2018-07-27T00:13:13.798Z,75.63
2018-07-27T00:14:13.713Z,75.98
2018-07-27T00:15:13.504Z,75.34
2018-07-27T00:16:13.758Z,75.89
2018-07-27T00:17:13.493Z,76.7
2018-07-27T00:18:13.486Z,77.44
2018-07-27T00:19:13.739Z,75.98
2018-07-27T00:20:13.735Z,76.76
2018-07-27T00:21:13.465Z,77.24
2018-07-27T00:22:13.461Z,76.95
2018-07-27T00:23:13.726Z,77.34
2018-07-27T00:24:13.449Z,76.86
2018-07-27T00:25:13.701Z,78.41
2018-07-27T00:26:13.702Z,78.59
2018-07-27T00:27:13.689Z,79.17
2018-07-27T00:28:13.694Z,78.11
2018-07-27T00:29:13.413Z,78.5
2018-07-27T00:30:13.675Z,78.11
2018-07-27T00:31:13.403Z,78.41
2018-07-27T00:32:13.660Z,78.41
2018-07-27T00:33:13.387Z,77.34
2018-07-27T00:34:13.384Z,79.66
2018-07-27T00:35:13.376Z,78.69
2018-07-27T00:36:13.367Z,78.21
2018-07-27T00:37:13.626Z,78.59
2018-07-27T00:38:13.353Z,78.79
2018-07-27T00:39:13.616Z,78.59
2018-07-27T00:40:13.610Z,79.52
2018-07-27T00:41:13.605Z,78.56
2018-07-27T00:42:13.598Z,77.2
2018-07-27T00:43:13.324Z,78.69
2018-07-27T00:44:13.583Z,79.52
2018-07-27T00:45:13.308Z,80.2
2018-07-27T00:46:13.302Z,80.4
2018-07-27T00:47:13.559Z,80.11
2018-07-27T00:48:13.292Z,80.59
2018-07-27T00:49:13.284Z,79.62
2018-07-27T00:50:13.276Z,78.85
2018-07-27T00:51:13.272Z,78.36
2018-07-27T00:52:13.265Z,79.33
2018-07-27T00:53:13.258Z,80.59
2018-07-27T00:54:13.259Z,79.62
2018-07-27T00:55:13.243Z,80.98
2018-07-27T00:56:13.241Z,80.69
2018-07-27T00:57:13.231Z,82.04
2018-07-27T00:58:13.486Z,83.3
2018-07-27T00:59:13.485Z,81.56
2018-07-27T01:00:13.207Z,80.49
2018-07-27T01:01:13.204Z,82.14
2018-07-27T01:02:13.458Z,80.88
2018-07-27T01:03:13.190Z,79.91
2018-07-27T01:04:13.454Z,82.53
2018-07-27T01:05:13.441Z,83.2
2018-07-27T01:06:13.173Z,83.74
2018-07-27T01:07:13.432Z,83.78
2018-07-27T01:08:13.420Z,83.98
2018-07-27T01:09:13.150Z,83.11
2018-07-27T01:10:13.144Z,83.69
2018-07-27T01:11:13.137Z,83.84
2018-07-27T01:12:13.392Z,86.88
2018-07-27T01:13:13.396Z,84.94
2018-07-27T01:14:13.387Z,84.32
2018-07-27T01:15:13.388Z,84.13
2018-07-27T01:16:13.101Z,83.2
2018-07-27T01:17:13.102Z,83.26
2018-07-27T01:18:13.088Z,82.97
2018-07-27T01:19:13.087Z,82.1
2018-07-27T01:20:13.075Z,82.48
2018-07-27T01:21:13.335Z,83.3
2018-07-27T01:22:13.338Z,83.26
2018-07-27T01:23:13.320Z,82.68
2018-07-27T01:24:13.314Z,84.9
2018-07-27T01:25:13.310Z,83.36
2018-07-27T01:26:13.297Z,85.1
2018-07-27T01:27:13.031Z,83.16
2018-07-27T01:28:13.020Z,83.45
2018-07-27T01:29:13.274Z,82.97
2018-07-27T01:30:13.274Z,84.71
2018-07-27T01:31:13.260Z,83.94
2018-07-27T01:32:13.261Z,84.71
2018-07-27T01:33:13.251Z,83.55
2018-07-27T01:34:13.244Z,85.87
2018-07-27T01:35:12.975Z,85
2018-07-27T01:36:13.233Z,84.32
2018-07-27T01:37:13.221Z,84.8
2018-07-27T01:38:13.217Z,82.97
2018-07-27T01:39:13.208Z,83.06
2018-07-27T01:40:13.201Z,85
2018-07-27T01:41:12.938Z,87.23
2018-07-27T01:42:13.202Z,86.45
2018-07-27T01:43:13.179Z,87.03
2018-07-27T01:44:12.917Z,86.55
2018-07-27T01:45:12.926Z,86.55
2018-07-27T01:46:12.896Z,84.9
2018-07-27T01:47:12.900Z,85.87
2018-07-27T01:48:12.882Z,84.8
2018-07-27T01:49:13.140Z,85.48
2018-07-27T01:50:13.136Z,85.97
2018-07-27T01:51:12.865Z,85.39
2018-07-27T01:52:13.120Z,85.68
2018-07-27T01:53:12.867Z,87.81
2018-07-27T01:54:12.842Z,86.65
2018-07-27T01:55:13.093Z,86.93
2018-07-27T01:56:13.093Z,85.93
2018-07-27T01:57:12.832Z,85.93
2018-07-27T01:58:12.814Z,87.18
2018-07-27T01:59:13.069Z,85.35
2018-07-27T02:00:13.065Z,87.37
2018-07-27T02:01:13.058Z,89.59
2018-07-27T02:02:13.051Z,87.76
2018-07-27T02:03:13.046Z,88.24
2018-07-27T02:04:12.776Z,88.92
2018-07-27T02:05:13.077Z,88.73
2018-07-27T02:06:13.022Z,92.98
2018-07-27T02:07:13.068Z,89.4
2018-07-27T02:08:12.743Z,88.34
2018-07-27T02:09:13.004Z,89.01
2018-07-27T02:10:12.729Z,89.59
2018-07-27T02:11:13.038Z,91.24
2018-07-27T02:12:12.981Z,91.72
2018-07-27T02:13:12.975Z,90.47
2018-07-27T02:14:13.162Z,92.25
2018-07-27T02:15:13.007Z,92.07
2018-07-27T02:16:12.944Z,91.82
2018-07-27T02:17:12.675Z,91.97
2018-07-27T02:18:12.668Z,91.49
2018-07-27T02:19:12.662Z,94.67
2018-07-27T02:20:12.655Z,94.48
2018-07-27T02:21:12.930Z,95.93
2018-07-27T02:22:12.902Z,97.86
2018-07-27T02:23:12.906Z,97.47
2018-07-27T02:24:12.630Z,98.25
2018-07-27T02:25:12.887Z,97.96
2018-07-27T02:26:12.877Z,97.67
2018-07-27T02:27:12.604Z,97.86
2018-07-27T02:28:12.863Z,99.5
2018-07-27T02:29:12.604Z,99.89
2018-07-27T02:30:12.586Z,99.99
2018-07-27T02:31:12.573Z,99.99
2018-07-27T02:32:12.564Z,99.21
2018-07-27T02:33:12.839Z,99.99
2018-07-27T02:34:12.822Z,99.99
2018-07-27T02:35:12.547Z,99.99
2018-07-27T02:36:12.804Z,99.99
2018-07-27T02:37:12.805Z,99.99
2018-07-27T02:38:12.785Z,99.99
2018-07-27T02:39:12.844Z,99.99
2018-07-27T02:40:12.848Z,99.99
2018-07-27T02:41:12.507Z,99.99
2018-07-27T02:42:12.496Z,99.99
2018-07-27T02:43:12.750Z,99.99
2018-07-27T02:44:12.477Z,99.99
2018-07-27T02:45:12.743Z,99.99
2018-07-27T02:46:12.467Z,99.99
2018-07-27T02:47:12.722Z,99.99
2018-07-27T02:48:12.448Z,99.99
2018-07-27T02:49:12.706Z,99.99
2018-07-27T02:50:12.710Z,99.99
2018-07-27T02:51:12.773Z,99.99
2018-07-27T02:52:12.687Z,99.99
2018-07-27T02:53:12.411Z,99.99
2018-07-27T02:54:12.399Z,99.99
2018-07-27T02:55:12.397Z,99.99
2018-07-27T02:56:12.392Z,99.99
2018-07-27T02:57:12.638Z,99.99
2018-07-27T02:58:12.641Z,99.99
2018-07-27T02:59:12.362Z,99.99
2018-07-27T03:00:12.624Z,99.99
2018-07-27T03:01:12.353Z,99.99
2018-07-27T03:02:12.606Z,99.99
2018-07-27T03:03:12.336Z,99.99
2018-07-27T03:04:12.329Z,99.99
2018-07-27T03:05:12.582Z,99.99
2018-07-27T03:06:12.573Z,99.99
2018-07-27T03:07:12.567Z,99.99
2018-07-27T03:08:12.294Z,99.99
2018-07-27T03:09:12.563Z,99.99
2018-07-27T03:10:12.284Z,99.99
2018-07-27T03:11:12.533Z,99.99
2018-07-27T03:12:12.258Z,99.99
2018-07-27T03:13:12.515Z,99.99
2018-07-27T03:14:12.248Z,99.99
2018-07-27T03:15:12.500Z,99.99
2018-07-27T03:16:12.233Z,99.99
2018-07-27T03:17:12.486Z,99.99
2018-07-27T03:18:12.217Z,99.99
2018-07-27T03:19:12.203Z,99.99
2018-07-27T03:20:12.475Z,99.99
2018-07-27T03:21:12.190Z,99.99
2018-07-27T03:22:12.448Z,99.99
2018-07-27T03:23:12.438Z,99.99
2018-07-27T03:24:12.164Z,99.99
2018-07-27T03:25:12.422Z,99.99
2018-07-27T03:26:12.147Z,99.99
2018-07-27T03:27:12.412Z,99.99
2018-07-27T03:28:12.402Z,99.99
2018-07-27T03:29:12.387Z,99.99
2018-07-27T03:30:12.116Z,99.99
2018-07-27T03:31:12.371Z,99.99
2018-07-27T03:32:12.103Z,99.99
2018-07-27T03:33:12.093Z,99.99
2018-07-27T03:34:12.348Z,99.99
2018-07-27T03:35:12.342Z,99.99
2018-07-27T03:36:12.068Z,99.99
2018-07-27T03:37:12.055Z,99.99
2018-07-27T03:38:12.078Z,99.99
2018-07-27T03:39:12.309Z,99.99
2018-07-27T03:40:12.037Z,99.99
2018-07-27T03:41:12.293Z,99.99
2018-07-27T03:42:12.092Z,99.99
2018-07-27T03:43:12.272Z,99.99
2018-07-27T03:44:11.998Z,99.99
2018-07-27T03:45:12.252Z,99.99
2018-07-27T03:46:12.254Z,99.99
2018-07-27T03:47:12.238Z,99.99
2018-07-27T03:48:11.965Z,99.99
2018-07-27T03:49:11.955Z,99.99
2018-07-27T03:50:12.252Z,99.99
2018-07-27T03:51:12.205Z,99.99
2018-07-27T03:52:12.197Z,99.99
2018-07-27T03:53:12.184Z,99.99
2018-07-27T03:54:11.917Z,99.99
2018-07-27T03:55:11.904Z,99.99
2018-07-27T03:56:11.898Z,99.99
2018-07-27T03:57:11.885Z,99.99
2018-07-27T03:58:11.881Z,99.99
2018-07-27T03:59:11.872Z,99.99
2018-07-27T04:00:12.126Z,99.99
2018-07-27T04:01:11.856Z,99.99
2018-07-27T04:02:11.847Z,99.99
2018-07-27T04:03:11.843Z,99.99
2018-07-27T04:04:12.103Z,99.99
2018-07-27T04:05:11.822Z,99.99
2018-07-27T04:06:11.813Z,99.99
2018-07-27T04:07:12.073Z,99.99
2018-07-27T04:08:11.793Z,99.99
2018-07-27T04:09:12.049Z,99.99
2018-07-27T04:10:12.044Z,99.99
2018-07-27T04:11:12.038Z,99.99
2018-07-27T04:12:12.027Z,99.99
2018-07-27T04:13:11.770Z,99.99
2018-07-27T04:14:12.212Z,99.99
2018-07-27T04:15:12.001Z,99.99
2018-07-27T04:16:11.990Z,99.99
2018-07-27T04:17:11.983Z,99.99
2018-07-27T04:18:11.732Z,99.99
2018-07-27T04:19:11.964Z,99.99
2018-07-27T04:20:11.956Z,99.99
2018-07-27T04:21:11.947Z,99.99
2018-07-27T04:22:11.945Z,99.99
2018-07-27T04:23:11.971Z,99.99
2018-07-27T04:24:11.922Z,99.99
2018-07-27T04:25:11.652Z,99.99
2018-07-27T04:26:11.927Z,99.99
2018-07-27T04:27:11.629Z,99.99
2018-07-27T04:28:11.887Z,99.99
2018-07-27T04:29:11.619Z,99.99
2018-07-27T04:30:11.610Z,99.99
2018-07-27T04:31:11.597Z,99.99
2018-07-27T04:32:11.850Z,99.99
2018-07-27T04:33:11.588Z,99.99
2018-07-27T04:34:11.834Z,99.99
2018-07-27T04:35:11.827Z,99.99
2018-07-27T04:36:11.553Z,99.99
2018-07-27T04:37:11.547Z,99.99
2018-07-27T04:38:11.538Z,99.99
2018-07-27T04:39:11.529Z,99.99
2018-07-27T04:40:11.523Z,99.99
2018-07-27T04:41:11.786Z,99.99
2018-07-27T04:42:11.772Z,99.99
2018-07-27T04:43:11.763Z,99.99
2018-07-27T04:44:11.753Z,99.99
2018-07-27T04:45:11.482Z,99.99
2018-07-27T04:46:11.473Z,99.99
2018-07-27T04:47:11.460Z,99.99
2018-07-27T04:48:11.716Z,99.99
2018-07-27T04:49:11.450Z,99.99
2018-07-27T04:50:11.699Z,99.99
2018-07-27T04:51:11.692Z,99.99
2018-07-27T04:52:11.420Z,99.99
2018-07-27T04:53:11.675Z,99.99
2018-07-27T04:54:11.665Z,99.99
2018-07-27T04:55:11.389Z,99.99
2018-07-27T04:56:11.715Z,99.99
2018-07-27T04:57:11.374Z,99.99
2018-07-27T04:58:11.638Z,99.99
2018-07-27T04:59:11.620Z,99.99
2018-07-27T05:00:11.352Z,99.99
2018-07-27T05:01:11.341Z,99.99
2018-07-27T05:02:11.605Z,99.99
2018-07-27T05:03:11.324Z,99.99
2018-07-27T05:04:11.584Z,99.99
2018-07-27T05:05:11.578Z,99.99
2018-07-27T05:06:11.300Z,99.99
2018-07-27T05:07:11.296Z,99.99
2018-07-27T05:08:11.550Z,99.99
2018-07-27T05:09:11.277Z,99.99
2018-07-27T05:10:11.267Z,99.99
2018-07-27T05:11:11.528Z,99.99
2018-07-27T05:12:11.517Z,99.99
2018-07-27T05:13:11.250Z,99.99
2018-07-27T05:14:11.503Z,99.99
2018-07-27T05:15:11.227Z,99.99
2018-07-27T05:16:11.485Z,99.99
2018-07-27T05:17:11.212Z,99.99
2018-07-27T05:18:11.262Z,99.99
2018-07-27T05:19:11.195Z,99.99
2018-07-27T05:20:11.193Z,99.99
2018-07-27T05:21:11.181Z,99.99
2018-07-27T05:22:11.175Z,99.99
2018-07-27T05:23:11.427Z,99.99
2018-07-27T05:24:11.461Z,99.99
2018-07-27T05:25:11.150Z,99.99
2018-07-27T05:26:11.142Z,99.99
2018-07-27T05:27:11.394Z,99.99
2018-07-27T05:28:11.388Z,99.99
2018-07-27T05:29:11.116Z,99.99
2018-07-27T05:30:11.371Z,99.99
2018-07-27T05:31:11.098Z,99.99
2018-07-27T05:32:11.357Z,99.99
2018-07-27T05:33:11.345Z,99.99
2018-07-27T05:34:11.344Z,99.99
2018-07-27T05:35:11.072Z,99.99
2018-07-27T05:36:11.324Z,99.99
2018-07-27T05:37:11.056Z,99.99
2018-07-27T05:38:11.305Z,99.99
2018-07-27T05:39:11.036Z,99.99
2018-07-27T05:40:11.026Z,99.99
2018-07-27T05:41:11.291Z,99.99
2018-07-27T05:42:11.281Z,99.99
2018-07-27T05:43:11.007Z,99.99
2018-07-27T05:44:11.270Z,99.99
2018-07-27T05:45:11.255Z,99.99
2018-07-27T05:46:11.253Z,99.99
2018-07-27T05:47:11.373Z,99.99
2018-07-27T05:48:10.974Z,99.99
2018-07-27T05:49:10.962Z,99.99
2018-07-27T05:50:10.955Z,99.99
2018-07-27T05:51:11.210Z,99.99
2018-07-27T05:52:10.942Z,99.99
2018-07-27T05:53:10.984Z,99.99
2018-07-27T05:54:10.927Z,99.99
2018-07-27T05:55:10.922Z,99.99
2018-07-27T05:56:11.186Z,99.99
2018-07-27T05:57:10.903Z,99.99
2018-07-27T05:58:11.163Z,99.99
2018-07-27T05:59:11.161Z,99.99
2018-07-27T06:00:10.883Z,99.99
2018-07-27T06:01:11.179Z,99.99
2018-07-27T06:02:12.979Z,99.99
2018-07-27T06:03:10.860Z,99.99
2018-07-27T06:04:10.863Z,99.99
2018-07-27T06:05:11.111Z,99.99
2018-07-27T06:06:10.837Z,99.99
2018-07-27T06:07:11.097Z,99.99
2018-07-27T06:08:11.090Z,99.99
2018-07-27T06:09:11.087Z,99.99
2018-07-27T06:10:10.811Z,99.99
2018-07-27T06:11:11.215Z,99.99
2018-07-27T06:12:11.060Z,99.99
2018-07-27T06:13:11.055Z,99.99
2018-07-27T06:14:10.986Z,99.99
2018-07-27T06:15:10.776Z,99.99
2018-07-27T06:16:10.768Z,99.99
2018-07-27T06:17:10.764Z,99.99
2018-07-27T06:18:11.336Z,99.99
2018-07-27T06:19:11.013Z,99.99
2018-07-27T06:20:11.008Z,99.99
2018-07-27T06:21:10.735Z,99.99
2018-07-27T06:22:10.728Z,99.99
2018-07-27T06:23:10.988Z,99.75
2018-07-27T06:24:10.814Z,99.99
2018-07-27T06:25:10.972Z,99.99
2018-07-27T06:26:10.965Z,97.81
2018-07-27T06:27:10.701Z,98.3
2018-07-27T06:28:10.756Z,99.99
2018-07-27T06:29:11.058Z,96.75
2018-07-27T06:30:10.945Z,94.23
2018-07-27T06:31:10.946Z,95.73
2018-07-27T06:32:10.662Z,95
2018-07-27T06:33:10.656Z,95.25
2018-07-27T06:34:10.914Z,96.6
2018-07-27T06:35:10.655Z,93.79
2018-07-27T06:36:10.899Z,95.63
2018-07-27T06:37:10.895Z,94.37
2018-07-27T06:38:10.888Z,97.67
2018-07-27T06:39:11.093Z,96.21
2018-07-27T06:40:10.612Z,95.43
2018-07-27T06:41:10.878Z,93.4
2018-07-27T06:42:10.861Z,94.08
2018-07-27T06:43:10.594Z,93.64
2018-07-27T06:44:10.856Z,91.71
2018-07-27T06:45:10.903Z,89.96
2018-07-27T06:46:10.843Z,92.67
2018-07-27T06:47:10.567Z,87.82
2018-07-27T06:48:10.829Z,91.99
2018-07-27T06:49:10.559Z,91.89
2018-07-27T06:50:10.547Z,90.83
2018-07-27T06:51:10.543Z,85.11
2018-07-27T06:52:10.802Z,84.34
2018-07-27T06:53:10.540Z,81.91
2018-07-27T06:54:10.786Z,80.11
2018-07-27T06:55:10.781Z,80.69
2018-07-27T06:56:10.782Z,80.5
2018-07-27T06:57:10.511Z,80.79
2018-07-27T06:58:10.499Z,81.76
2018-07-27T06:59:10.755Z,83.8
2018-07-27T07:00:10.488Z,81.31
2018-07-27T07:01:10.480Z,83.84
2018-07-27T07:02:10.738Z,80.05
2018-07-27T07:03:10.738Z,78.5
2018-07-27T07:04:10.730Z,78.89
2018-07-27T07:05:10.460Z,79.18
2018-07-27T07:06:10.459Z,78.59
2018-07-27T07:07:10.715Z,77.95
2018-07-27T07:08:10.707Z,78.11
2018-07-27T07:09:10.520Z,77.37
2018-07-27T07:10:10.696Z,76.98
2018-07-27T07:11:10.687Z,75.43
2018-07-27T07:12:10.687Z,75.82
2018-07-27T07:13:10.411Z,76.21
2018-07-27T07:14:10.403Z,77.18
2018-07-27T07:15:10.663Z,74.85
2018-07-27T07:16:10.654Z,74.37
2018-07-27T07:17:10.657Z,75.24
2018-07-27T07:18:10.389Z,74.88
2018-07-27T07:19:10.647Z,73.72
2018-07-27T07:20:10.642Z,74.21
2018-07-27T07:21:10.369Z,74.4
2018-07-27T07:22:10.359Z,75.57
2018-07-27T07:23:10.621Z,75.08
2018-07-27T07:24:10.613Z,76.44
2018-07-27T07:25:10.408Z,76.34
2018-07-27T07:26:10.764Z,76.64
2018-07-27T07:27:10.333Z,76.48
2018-07-27T07:28:10.331Z,74.82
2018-07-27T07:29:10.597Z,74.24
2018-07-27T07:30:10.316Z,74.73
2018-07-27T07:31:10.580Z,73.95
2018-07-27T07:32:10.573Z,73.37
2018-07-27T07:33:10.727Z,72.49
2018-07-27T07:34:10.300Z,72.3
2018-07-27T07:35:10.554Z,72.11
2018-07-27T07:36:10.548Z,72.2
2018-07-27T07:37:10.571Z,72.33
2018-07-27T07:38:10.274Z,70.97
2018-07-27T07:39:10.625Z,69.52
2018-07-27T07:40:10.535Z,65.43
2018-07-27T07:41:10.530Z,62.01
2018-07-27T07:42:10.302Z,59.46
2018-07-27T07:43:10.519Z,57.36
2018-07-27T07:44:10.522Z,55.85
2018-07-27T07:45:10.713Z,55.91
2018-07-27T07:46:10.506Z,53.83
2018-07-27T07:47:10.510Z,51.89
2018-07-27T07:48:10.239Z,51.84
2018-07-27T07:49:10.237Z,49.99
2018-07-27T07:50:10.237Z,49.16
2018-07-27T07:51:10.244Z,48.39
2018-07-27T07:52:10.503Z,47.23
2018-07-27T07:53:10.501Z,46.37
2018-07-27T07:54:10.235Z,45.79
2018-07-27T07:55:10.495Z,45.72
2018-07-27T07:56:10.237Z,45.74
2018-07-27T07:57:10.497Z,44.09
2018-07-27T07:58:10.500Z,44.2
2018-07-27T07:59:10.241Z,44.13
2018-07-27T08:00:10.506Z,42.96
2018-07-27T08:01:10.237Z,42.88
2018-07-27T08:02:10.240Z,42.71
2018-07-27T08:03:10.511Z,42.03
2018-07-27T08:04:10.304Z,41.85
2018-07-27T08:05:10.519Z,40.07
2018-07-27T08:06:10.517Z,39.89
2018-07-27T08:07:10.514Z,38.7
2018-07-27T08:08:10.255Z,39.11
2018-07-27T08:09:10.522Z,38.71
2018-07-27T08:10:10.260Z,39.33
2018-07-27T08:11:10.631Z,37.76
2018-07-27T08:12:10.527Z,38.54
2018-07-27T08:13:10.276Z,38.35
2018-07-27T08:14:10.803Z,38.26
2018-07-27T08:15:10.280Z,37.56
2018-07-27T08:16:10.542Z,36.78
2018-07-27T08:17:10.287Z,37.16
2018-07-27T08:18:10.290Z,36.98
2018-07-27T08:19:10.560Z,37.79
2018-07-27T08:20:10.565Z,36.52
2018-07-27T08:21:10.565Z,35.44
2018-07-27T08:22:10.305Z,35.94
2018-07-27T08:23:10.312Z,36.24
2018-07-27T08:24:10.585Z,35.56
2018-07-27T08:25:10.320Z,34.96
2018-07-27T08:26:10.593Z,34.76
2018-07-27T08:27:10.592Z,35.16
2018-07-27T08:28:10.601Z,34.45
2018-07-27T08:29:10.610Z,35.49
2018-07-27T08:30:10.345Z,36.53
2018-07-27T08:31:10.617Z,37.6
2018-07-27T08:32:10.352Z,38.54
2018-07-27T08:33:10.622Z,38.7
2018-07-27T08:34:10.631Z,39.26
2018-07-27T08:35:10.367Z,39.72
2018-07-27T08:36:10.372Z,39.99
2018-07-27T08:37:10.642Z,39.99
2018-07-27T08:38:10.654Z,39
2018-07-27T08:39:10.386Z,39.22
2018-07-27T08:40:10.662Z,38.47
2018-07-27T08:41:10.399Z,38.07
2018-07-27T08:42:10.405Z,37.71
2018-07-27T08:43:10.407Z,37.04
2018-07-27T08:44:10.679Z,37.63
2018-07-27T08:45:10.683Z,37.51
2018-07-27T08:46:10.689Z,37.51
2018-07-27T08:47:10.802Z,39.04
2018-07-27T08:48:10.433Z,39
2018-07-27T08:49:10.433Z,40.25
2018-07-27T08:50:10.439Z,40.53
2018-07-27T08:51:10.444Z,41.17
2018-07-27T08:52:10.446Z,42.63
2018-07-27T08:53:10.450Z,42.52
2018-07-27T08:54:10.716Z,42.91
2018-07-27T08:55:10.732Z,43.87
2018-07-27T08:56:10.459Z,44.24
2018-07-27T08:57:10.725Z,43.46
2018-07-27T08:58:10.467Z,43.14
2018-07-27T08:59:10.733Z,43.73
2018-07-27T09:00:10.468Z,43.71
2018-07-27T09:01:10.734Z,43.88
2018-07-27T09:02:10.735Z,44.67
2018-07-27T09:03:10.737Z,44.96
2018-07-27T09:04:10.735Z,44.35
2018-07-27T09:05:10.476Z,43.29
2018-07-27T09:06:10.741Z,43.96
2018-07-27T09:07:10.738Z,44.82
2018-07-27T09:08:10.476Z,45.31
2018-07-27T09:09:10.485Z,47.25
2018-07-27T09:10:10.781Z,46.86
2018-07-27T09:11:10.740Z,46.47
2018-07-27T09:12:10.744Z,46.47
2018-07-27T09:13:10.746Z,47.74
2018-07-27T09:14:10.478Z,46.95
2018-07-27T09:15:10.482Z,47.64
2018-07-27T09:16:10.481Z,47.45
2018-07-27T09:17:10.478Z,46.88
2018-07-27T09:18:10.743Z,45.9
2018-07-27T09:19:10.484Z,45.41
2018-07-27T09:20:10.476Z,44.73
2018-07-27T09:21:10.477Z,45.63
2018-07-27T09:22:10.748Z,46.31
2018-07-27T09:23:10.746Z,45.16
2018-07-27T09:24:10.571Z,44.4
2018-07-27T09:25:11.060Z,45.09
2018-07-27T09:26:10.738Z,44.02
2018-07-27T09:27:10.743Z,43.04
2018-07-27T09:28:10.476Z,43.36
2018-07-27T09:29:10.477Z,42.52
2018-07-27T09:30:10.477Z,41.65
2018-07-27T09:31:10.473Z,42.63
2018-07-27T09:32:10.744Z,41.45
2018-07-27T09:33:10.482Z,41.63
2018-07-27T09:34:10.538Z,41.71
2018-07-27T09:35:10.870Z,42.89
2018-07-27T09:36:10.751Z,42.77
2018-07-27T09:37:10.736Z,43.06
2018-07-27T09:38:10.737Z,43.43
2018-07-27T09:39:10.737Z,43.12
2018-07-27T09:40:10.477Z,43.9
2018-07-27T09:41:10.741Z,44.3
2018-07-27T09:42:10.733Z,44.4
2018-07-27T09:43:10.470Z,44.08
2018-07-27T09:44:10.741Z,44.06
2018-07-27T09:45:10.731Z,44.55
2018-07-27T09:46:10.469Z,44.65
2018-07-27T09:47:10.466Z,44.45
2018-07-27T09:48:10.464Z,45.14
2018-07-27T09:49:10.727Z,45.04
2018-07-27T09:50:10.726Z,46
2018-07-27T09:51:10.465Z,47.27
2018-07-27T09:52:10.462Z,46.88
2018-07-27T09:53:10.461Z,46.88
2018-07-27T09:54:10.729Z,47.37
2018-07-27T09:55:10.463Z,45.51
2018-07-27T09:56:10.725Z,46.1
2018-07-27T09:57:10.717Z,45.31
2018-07-27T09:58:10.453Z,45.98
2018-07-27T09:59:10.713Z,47.35
2018-07-27T10:00:10.712Z,44.9
2018-07-27T10:01:10.457Z,45.51
2018-07-27T10:02:10.713Z,44.33
2018-07-27T10:03:10.705Z,45.12
2018-07-27T10:04:10.442Z,44.62
2018-07-27T10:05:10.445Z,44.23
2018-07-27T10:06:10.709Z,44.35
2018-07-27T10:07:10.437Z,44.55
2018-07-27T10:08:10.712Z,44.06
2018-07-27T10:09:10.439Z,44.47
2018-07-27T10:10:10.440Z,45.73
2018-07-27T10:11:10.713Z,46.12
2018-07-27T10:12:10.432Z,46.02
2018-07-27T10:13:10.430Z,46.41
2018-07-27T10:14:10.430Z,46.81
2018-07-27T10:15:10.688Z,45.85
2018-07-27T10:16:10.426Z,44.67
2018-07-27T10:17:10.694Z,44.67
2018-07-27T10:18:10.419Z,44.67
2018-07-27T10:19:10.420Z,44.35
2018-07-27T10:20:10.687Z,44.16
2018-07-27T10:21:10.679Z,44.35
2018-07-27T10:22:10.678Z,43.76
2018-07-27T10:23:10.414Z,43.08
2018-07-27T10:24:10.427Z,43.76
2018-07-27T10:25:10.678Z,44.26
2018-07-27T10:26:10.676Z,43.76
2018-07-27T10:27:10.406Z,43.08
2018-07-27T10:28:10.400Z,43.18
2018-07-27T10:29:10.397Z,43.18
2018-07-27T10:30:10.667Z,43.74
2018-07-27T10:31:10.690Z,43.96
2018-07-27T10:32:10.396Z,43.86
2018-07-27T10:33:10.664Z,43.39
2018-07-27T10:34:10.658Z,42.51
2018-07-27T10:35:10.399Z,43.79
2018-07-27T10:36:10.395Z,43
2018-07-27T10:37:10.394Z,42.82
2018-07-27T10:38:10.394Z,43.14
2018-07-27T10:39:10.661Z,41.56
2018-07-27T10:40:10.662Z,42.49
2018-07-27T10:41:10.663Z,41.14
2018-07-27T10:42:10.405Z,40.76
2018-07-27T10:43:10.672Z,40.43
2018-07-27T10:44:10.407Z,38.29
2018-07-27T10:45:10.678Z,38.23
2018-07-27T10:46:10.421Z,37.46
2018-07-27T10:47:10.683Z,37.48
2018-07-27T10:48:10.691Z,37.62
2018-07-27T10:49:10.431Z,36.64
2018-07-27T10:50:10.824Z,34.68
2018-07-27T10:51:10.438Z,33.69
2018-07-27T10:52:10.710Z,33.59
2018-07-27T10:53:10.726Z,35.95
2018-07-27T10:54:10.721Z,34.28
2018-07-27T10:55:10.731Z,34.48
2018-07-27T10:56:10.738Z,34.48
2018-07-27T10:57:10.740Z,34.59
2018-07-27T10:58:10.745Z,33.83
2018-07-27T10:59:10.755Z,33.06
2018-07-27T11:00:10.761Z,32.87
2018-07-27T11:01:10.773Z,33.67
2018-07-27T11:02:10.775Z,32.99
2018-07-27T11:03:10.792Z,33.92
2018-07-27T11:04:10.788Z,32.44
2018-07-27T11:05:10.797Z,32.64
2018-07-27T11:06:10.546Z,32.06
2018-07-27T11:07:10.813Z,31.66
2018-07-27T11:08:10.557Z,31.57
2018-07-27T11:09:10.834Z,30.79
2018-07-27T11:10:10.840Z,31.89
2018-07-27T11:11:10.850Z,29.9
2018-07-27T11:12:10.852Z,31.79
2018-07-27T11:13:10.598Z,32.09
2018-07-27T11:14:10.876Z,31.1
2018-07-27T11:15:10.627Z,31.52
2018-07-27T11:16:10.624Z,32.22
2018-07-27T11:17:10.638Z,32.14
2018-07-27T11:18:10.907Z,31.84
2018-07-27T11:19:10.914Z,31.24
2018-07-27T11:20:10.927Z,31.13
2018-07-27T11:21:10.670Z,32.03
2018-07-27T11:22:10.679Z,31.24
2018-07-27T11:23:10.693Z,31.13
2018-07-27T11:24:10.704Z,29.95
2018-07-27T11:25:10.715Z,29.54
2018-07-27T11:26:10.732Z,31.12
2018-07-27T11:27:10.729Z,29.82
2018-07-27T11:28:11.011Z,30.51
2018-07-27T11:29:11.011Z,30.49
2018-07-27T11:30:11.039Z,31.66
2018-07-27T11:31:10.769Z,32.26
2018-07-27T11:32:10.787Z,32.15
2018-07-27T11:33:10.788Z,31.37
2018-07-27T11:34:10.800Z,32.68
2018-07-27T11:35:11.077Z,31.9
2018-07-27T11:36:10.823Z,32.32
2018-07-27T11:37:10.938Z,30.63
2018-07-27T11:38:11.105Z,31.25
2018-07-27T11:39:11.113Z,31.07
2018-07-27T11:40:10.868Z,30.57
2018-07-27T11:41:11.133Z,30.98
2018-07-27T11:42:11.163Z,31.1
2018-07-27T11:43:10.902Z,29.19
2018-07-27T11:44:10.905Z,28.89
2018-07-27T11:45:11.181Z,30.1
2018-07-27T11:46:11.191Z,29.8
2018-07-27T11:47:10.934Z,29.88
2018-07-27T11:48:11.207Z,29.97
2018-07-27T11:49:11.223Z,29.18
2018-07-27T11:50:10.972Z,30.08
2018-07-27T11:51:10.977Z,31.59
2018-07-27T11:52:11.258Z,29.88
2018-07-27T11:53:10.998Z,31.68
2018-07-27T11:54:11.008Z,28.8
2018-07-27T11:55:11.287Z,29.71
2018-07-27T11:56:11.031Z,28.31
2018-07-27T11:57:11.307Z,30.01
2018-07-27T11:58:11.054Z,29.21
2018-07-27T11:59:11.333Z,29.12
2018-07-27T12:00:11.338Z,28.92
2018-07-27T12:01:11.084Z,29.22
2018-07-27T12:02:11.365Z,29.53
2018-07-27T12:03:11.107Z,28.65
2018-07-27T12:04:11.122Z,28.66
2018-07-27T12:05:11.396Z,27.76
2018-07-27T12:06:11.139Z,27.75
2018-07-27T12:07:11.578Z,26.35
2018-07-27T12:08:11.186Z,29.14
2018-07-27T12:09:11.440Z,27.23
2018-07-27T12:10:11.193Z,25.93
2018-07-27T12:11:11.464Z,26.32
2018-07-27T12:12:11.206Z,26.82
2018-07-27T12:13:11.485Z,27.73
2018-07-27T12:14:11.347Z,28.74
2018-07-27T12:15:11.582Z,26.93
2018-07-27T12:16:11.256Z,27.45
2018-07-27T12:17:11.267Z,27.65
2018-07-27T12:18:11.281Z,26.06
2018-07-27T12:19:11.556Z,26.35
2018-07-27T12:20:11.568Z,27.78
2018-07-27T12:21:11.813Z,27.27
2018-07-27T12:22:11.324Z,27.69
2018-07-27T12:23:11.594Z,27.58
2018-07-27T12:24:11.608Z,27.09
2018-07-27T12:25:11.619Z,26.58
2018-07-27T12:26:11.371Z,26.18
2018-07-27T12:27:11.792Z,27.37
2018-07-27T12:28:11.395Z,27.37
2018-07-27T12:29:11.404Z,28.09
2018-07-27T12:30:11.676Z,26.58
2018-07-27T12:31:11.690Z,27.19
2018-07-27T12:32:11.443Z,25.49
2018-07-27T12:33:11.716Z,25.49
2018-07-27T12:34:11.464Z,25.56
2018-07-27T12:35:11.783Z,26.33
2018-07-27T12:36:11.492Z,26.71
2018-07-27T12:37:11.765Z,27.61
2018-07-27T12:38:11.511Z,28.12
2018-07-27T12:39:11.791Z,26.72
2018-07-27T12:40:11.536Z,26.32
2018-07-27T12:41:11.544Z,26.12
2018-07-27T12:42:11.817Z,26.68
2018-07-27T12:43:11.829Z,27.45
2018-07-27T12:44:11.839Z,27.75
2018-07-27T12:45:11.592Z,28.75
2018-07-27T12:46:11.870Z,29.65
2018-07-27T12:47:11.875Z,26.98
2018-07-27T12:48:11.625Z,27.68
2018-07-27T12:49:11.908Z,26.18
2018-07-27T12:50:11.909Z,27.77
2018-07-27T12:51:11.670Z,27.28
2018-07-27T12:52:11.668Z,27.19
2018-07-27T12:53:11.687Z,26.98
2018-07-27T12:54:11.694Z,27.78